Vasiliy Bozhenko — URHP — position and weather

sailwx.info

Track history (hours):
 
Tides and Currents Weather Stations Pressure Air Temp Water Temp Dewpoint Dewpoint Depression Visibility Wind Speed Wind Dir Waves Ship Positions

Vasiliy Bozhenko

Last reported at 2016-Nov-27 00:05 UTC. Time now 2016-Dec-03 06:49 UTC.
Position N 46°23' E 030°55'.

Length 114 m; draft 3.9 m.

Type: Cargo ship. MMSI: 272085000.

Date/timePositionNaut miles runAvg speedWind from/ knotsBaromVisibWave heightAir tempDewpointWater temp
2016-Nov-27 00:05N 46°23' E 030°55'4 7.0
2016-Nov-26 23:31N 46°27' E 030°55'36 6.1
2016-Nov-26 17:33N 46°36' E 031°47'7 7.5
2016-Nov-26 16:33N 46°34' E 031°57'139 5.0
2016-Nov-25 12:33N 47°34' E 035°01'8 7.7
2016-Nov-25 11:33N 47°41' E 035°07'7 7.3
2016-Nov-25 10:33N 47°48' E 035°10'1 0.6
2016-Nov-25 09:30N 47°48' E 035°10'0 0.0
2016-Nov-25 08:30N 47°48' E 035°10'0 0.5
2016-Nov-25 07:34N 47°49' E 035°09'4 2.0
2016-Nov-25 05:33N 47°52' E 035°06'0 0.3
2016-Nov-25 04:04N 47°52' E 035°06'0 0.0
2016-Nov-25 03:28N 47°52' E 035°06'0 0.0
2016-Nov-25 02:16N 47°52' E 035°06'0 0.0
2016-Nov-25 01:28N 47°52' E 035°06'0 0.2
2016-Nov-25 00:31N 47°52' E 035°06'0 0.3
2016-Nov-24 23:30N 47°52' E 035°06'0 0.0
2016-Nov-24 22:30N 47°52' E 035°06'0 0.0
2016-Nov-24 21:31N 47°52' E 035°06'0 0.0
2016-Nov-24 20:31N 47°52' E 035°06'0 0.0
2016-Nov-24 19:24N 47°52' E 035°06'0 0.0
2016-Nov-24 18:30N 47°52' E 035°06'0 0.0
2016-Nov-24 16:30N 47°52' E 035°06'0 0.0
2016-Nov-24 15:30N 47°52' E 035°06'0 0.0
2016-Nov-24 14:30N 47°52' E 035°06'0 0.0
2016-Nov-24 13:25N 47°52' E 035°06'0 0.1
2016-Nov-24 12:31N 47°52' E 035°06'0 0.0
2016-Nov-24 11:30N 47°52' E 035°06'0 0.0
2016-Nov-24 10:28N 47°52' E 035°06'0 0.0
2016-Nov-24 09:28N 47°52' E 035°06'0 0.0
2016-Nov-24 08:28N 47°52' E 035°06'0 0.0
2016-Nov-24 07:32N 47°52' E 035°06'0 0.0
2016-Nov-24 06:32N 47°52' E 035°06'0 0.0
2016-Nov-24 05:32N 47°52' E 035°06'0 0.0
2016-Nov-24 04:20N 47°52' E 035°06'0 0.0
2016-Nov-24 03:32N 47°52' E 035°06'0 0.0
2016-Nov-24 02:32N 47°52' E 035°06'0 0.0
2016-Nov-24 01:28N 47°52' E 035°06'0 0.0
2016-Nov-24 00:28N 47°52' E 035°06'0 0.0
2016-Nov-23 23:28N 47°52' E 035°06'0 0.0
2016-Nov-23 22:28N 47°52' E 035°06'0 0.0
2016-Nov-23 21:28N 47°52' E 035°06'0 0.0
2016-Nov-23 20:30N 47°52' E 035°06'0 0.0
2016-Nov-23 19:30N 47°52' E 035°06'2 1.7
2016-Nov-23 18:34N 47°54' E 035°06'8 7.9
2016-Nov-23 17:33N 48°02' E 035°08'  
2016-Nov-19 17:33N 47°58' E 035°07'6 6.1
2016-Nov-19 16:33N 47°52' E 035°05'4 2.2
2016-Nov-19 14:33N 47°48' E 035°09'12 4.1
2016-Nov-19 11:33N 47°37' E 035°03'13 6.7
2016-Nov-19 09:33N 47°31' E 034°45'127 4.4
2016-Nov-18 04:33N 46°33' E 032°00'  
Track history (hours):
 
Tides and Currents Weather Stations Pressure Air Temp Water Temp Dewpoint Dewpoint Depression Visibility Wind Speed Wind Dir Waves Ship Positions

Vasiliy Bozhenko

Last reported at 2016-Nov-27 00:05 UTC. Time now 2016-Dec-03 06:49 UTC.
Position N 46°23' E 030°55'.

Length 114 m; draft 3.9 m.

Type: Cargo ship. MMSI: 272085000.

Date/timePositionNaut miles runAvg speedWind from/ knotsBaromVisibWave heightAir tempDewpointWater temp
2016-Nov-27 00:05N 46°23' E 030°55'4 7.0
2016-Nov-26 23:31N 46°27' E 030°55'36 6.1
2016-Nov-26 17:33N 46°36' E 031°47'7 7.5
2016-Nov-26 16:33N 46°34' E 031°57'139 5.0
2016-Nov-25 12:33N 47°34' E 035°01'8 7.7
2016-Nov-25 11:33N 47°41' E 035°07'7 7.3
2016-Nov-25 10:33N 47°48' E 035°10'1 0.6
2016-Nov-25 09:30N 47°48' E 035°10'0 0.0
2016-Nov-25 08:30N 47°48' E 035°10'0 0.5
2016-Nov-25 07:34N 47°49' E 035°09'4 2.0
2016-Nov-25 05:33N 47°52' E 035°06'0 0.3
2016-Nov-25 04:04N 47°52' E 035°06'0 0.0
2016-Nov-25 03:28N 47°52' E 035°06'0 0.0
2016-Nov-25 02:16N 47°52' E 035°06'0 0.0
2016-Nov-25 01:28N 47°52' E 035°06'0 0.2
2016-Nov-25 00:31N 47°52' E 035°06'0 0.3
2016-Nov-24 23:30N 47°52' E 035°06'0 0.0
2016-Nov-24 22:30N 47°52' E 035°06'0 0.0
2016-Nov-24 21:31N 47°52' E 035°06'0 0.0
2016-Nov-24 20:31N 47°52' E 035°06'0 0.0
2016-Nov-24 19:24N 47°52' E 035°06'0 0.0
2016-Nov-24 18:30N 47°52' E 035°06'0 0.0
2016-Nov-24 16:30N 47°52' E 035°06'0 0.0
2016-Nov-24 15:30N 47°52' E 035°06'0 0.0
2016-Nov-24 14:30N 47°52' E 035°06'0 0.0
2016-Nov-24 13:25N 47°52' E 035°06'0 0.1
2016-Nov-24 12:31N 47°52' E 035°06'0 0.0
2016-Nov-24 11:30N 47°52' E 035°06'0 0.0
2016-Nov-24 10:28N 47°52' E 035°06'0 0.0
2016-Nov-24 09:28N 47°52' E 035°06'0 0.0
2016-Nov-24 08:28N 47°52' E 035°06'0 0.0
2016-Nov-24 07:32N 47°52' E 035°06'0 0.0
2016-Nov-24 06:32N 47°52' E 035°06'0 0.0
2016-Nov-24 05:32N 47°52' E 035°06'0 0.0
2016-Nov-24 04:20N 47°52' E 035°06'0 0.0
2016-Nov-24 03:32N 47°52' E 035°06'0 0.0
2016-Nov-24 02:32N 47°52' E 035°06'0 0.0
2016-Nov-24 01:28N 47°52' E 035°06'0 0.0
2016-Nov-24 00:28N 47°52' E 035°06'0 0.0
2016-Nov-23 23:28N 47°52' E 035°06'0 0.0
2016-Nov-23 22:28N 47°52' E 035°06'0 0.0
2016-Nov-23 21:28N 47°52' E 035°06'0 0.0
2016-Nov-23 20:30N 47°52' E 035°06'0 0.0
2016-Nov-23 19:30N 47°52' E 035°06'2 1.7
2016-Nov-23 18:34N 47°54' E 035°06'8 7.9
2016-Nov-23 17:33N 48°02' E 035°08'  
2016-Nov-19 17:33N 47°58' E 035°07'6 6.1
2016-Nov-19 16:33N 47°52' E 035°05'4 2.2
2016-Nov-19 14:33N 47°48' E 035°09'12 4.1
2016-Nov-19 11:33N 47°37' E 035°03'13 6.7
2016-Nov-19 09:33N 47°31' E 034°45'127 4.4
2016-Nov-18 04:33N 46°33' E 032°00'  

Dump ship's entire track history